createdAt,value
2019-05-09T00:02:08.169Z,15.17
2019-05-09T00:04:39.699Z,15.08
2019-05-09T00:07:10.952Z,14.94
2019-05-09T00:09:44.108Z,15.11
2019-05-09T00:12:16.531Z,15.31
2019-05-09T00:14:48.256Z,15.23
2019-05-09T00:17:20.531Z,15.44
2019-05-09T00:19:53.995Z,15.54
2019-05-09T00:22:26.382Z,15.67
2019-05-09T00:24:57.913Z,15.86
2019-05-09T00:27:29.785Z,15.80
2019-05-09T00:30:03.720Z,15.66
2019-05-09T00:32:44.390Z,15.56
2019-05-09T00:35:26.593Z,15.13
2019-05-09T00:38:07.335Z,15.03
2019-05-09T00:40:54.611Z,14.98
2019-05-09T00:43:15.087Z,14.95
2019-05-09T00:46:05.781Z,15.00
2019-05-09T00:49:05.588Z,14.82
2019-05-09T00:51:38.716Z,14.70
2019-05-09T00:54:10.537Z,14.64
2019-05-09T00:56:43.617Z,14.75
2019-05-09T00:59:15.864Z,14.41
2019-05-09T01:01:48.037Z,14.53
2019-05-09T01:04:21.183Z,14.87
2019-05-09T01:06:54.109Z,15.09
2019-05-09T01:09:25.758Z,15.20
2019-05-09T01:11:57.627Z,15.33
2019-05-09T01:14:29.142Z,15.29
2019-05-09T01:17:01.211Z,15.14
2019-05-09T01:19:33.861Z,15.11
2019-05-09T01:22:06.102Z,15.08
2019-05-09T01:24:37.536Z,15.23
2019-05-09T01:27:09.409Z,15.40
2019-05-09T01:29:43.873Z,15.09
2019-05-09T01:32:23.758Z,15.10
2019-05-09T01:34:55.214Z,15.19
2019-05-09T01:37:27.230Z,15.26
2019-05-09T01:39:58.455Z,14.68
2019-05-09T01:42:30.125Z,15.07
2019-05-09T01:45:03.705Z,15.06
2019-05-09T01:47:46.228Z,14.80
2019-05-09T01:50:18.418Z,15.25
2019-05-09T01:52:50.202Z,15.09
2019-05-09T01:55:23.597Z,15.51
2019-05-09T01:57:55.087Z,15.27
2019-05-09T02:00:27.897Z,15.26
2019-05-09T02:02:59.959Z,15.06
2019-05-09T02:05:33.887Z,14.86
2019-05-09T02:08:05.089Z,15.05
2019-05-09T02:10:37.353Z,14.95
2019-05-09T02:13:10.691Z,15.19
2019-05-09T02:15:55.784Z,15.18
2019-05-09T02:18:33.977Z,15.10
2019-05-09T02:21:05.324Z,14.95
2019-05-09T02:23:38.719Z,14.98
2019-05-09T02:26:09.968Z,15.23
2019-05-09T02:28:43.258Z,14.96
2019-05-09T02:31:16.296Z,14.95
2019-05-09T02:33:48.307Z,14.69
2019-05-09T02:36:20.304Z,14.94
2019-05-09T02:38:53.714Z,15.15
2019-05-09T02:41:28.516Z,15.24
2019-05-09T02:43:59.276Z,15.63
2019-05-09T02:46:38.534Z,15.95
2019-05-09T02:49:30.552Z,16.14
2019-05-09T02:52:01.915Z,16.31
2019-05-09T02:54:33.254Z,16.38
2019-05-09T02:57:09.339Z,16.57
2019-05-09T02:59:59.251Z,16.64
2019-05-09T03:02:48.814Z,16.67
2019-05-09T03:05:20.741Z,16.47
2019-05-09T03:07:52.304Z,15.59
2019-05-09T03:10:24.212Z,14.65
2019-05-09T03:12:55.672Z,14.26
2019-05-09T03:15:29.131Z,14.37
2019-05-09T03:18:01.465Z,14.77
2019-05-09T03:20:54.840Z,15.20
2019-05-09T03:23:28.486Z,15.36
2019-05-09T03:25:59.749Z,15.88
2019-05-09T03:28:40.648Z,16.19
2019-05-09T03:31:13.738Z,16.07
2019-05-09T03:33:45.450Z,15.50
2019-05-09T03:36:18.159Z,14.93
2019-05-09T03:38:50.629Z,14.54
2019-05-09T03:41:22.232Z,14.21
2019-05-09T03:43:55.597Z,14.08
2019-05-09T03:46:47.604Z,14.07
2019-05-09T03:49:19.545Z,13.75
2019-05-09T03:51:50.808Z,13.89
2019-05-09T03:54:22.422Z,14.66
2019-05-09T03:57:01.433Z,14.56
2019-05-09T03:59:32.937Z,13.84
2019-05-09T04:02:10.002Z,14.15
2019-05-09T04:04:38.986Z,14.83
2019-05-09T04:07:10.376Z,15.40
2019-05-09T04:09:43.139Z,15.90
2019-05-09T04:12:14.823Z,16.26
2019-05-09T04:14:48.017Z,16.12
2019-05-09T04:17:19.812Z,16.19
2019-05-09T04:19:51.678Z,15.82
2019-05-09T04:22:23.514Z,16.02
2019-05-09T04:24:55.127Z,16.08
2019-05-09T04:27:30.211Z,16.14
2019-05-09T04:30:02.446Z,16.38
2019-05-09T04:32:44.513Z,16.36
2019-05-09T04:35:17.619Z,15.80
2019-05-09T04:37:48.975Z,16.22
2019-05-09T04:40:20.645Z,16.34
2019-05-09T04:42:52.111Z,16.14
2019-05-09T04:45:33.282Z,15.70
2019-05-09T04:48:08.144Z,16.12
2019-05-09T04:50:39.979Z,16.22
2019-05-09T04:53:14.328Z,16.52
2019-05-09T04:55:47.937Z,16.72
2019-05-09T04:58:22.018Z,16.71
2019-05-09T05:01:21.939Z,16.76
2019-05-09T05:03:57.323Z,16.84
2019-05-09T05:06:28.786Z,16.38
2019-05-09T05:09:02.466Z,16.13
2019-05-09T05:11:38.682Z,16.48
2019-05-09T05:14:21.532Z,15.94
2019-05-09T05:16:55.693Z,16.56
2019-05-09T05:19:28.569Z,16.22
2019-05-09T05:22:09.733Z,15.82
2019-05-09T05:24:59.451Z,15.80
2019-05-09T05:27:30.173Z,16.45
2019-05-09T05:30:02.606Z,14.04
2019-05-09T05:32:52.944Z,13.73
2019-05-09T05:35:43.465Z,14.00
2019-05-09T05:38:17.597Z,14.37
2019-05-09T05:40:49.906Z,13.82
2019-05-09T05:43:21.743Z,13.83
2019-05-09T05:46:13.527Z,13.51
2019-05-09T05:48:45.624Z,13.10
2019-05-09T05:51:19.489Z,13.00
2019-05-09T05:53:51.076Z,12.85
2019-05-09T05:56:23.582Z,12.96
2019-05-09T05:58:57.962Z,12.86
2019-05-09T06:01:30.261Z,12.73
2019-05-09T06:04:01.760Z,12.79
2019-05-09T06:06:37.492Z,12.89
2019-05-09T06:09:10.117Z,12.90
2019-05-09T06:11:42.653Z,12.87
2019-05-09T06:14:18.167Z,12.70
2019-05-09T06:16:49.482Z,12.55
2019-05-09T06:19:20.957Z,12.59
2019-05-09T06:21:57.358Z,12.65
2019-05-09T06:24:29.607Z,12.65
2019-05-09T06:27:01.339Z,12.56
2019-05-09T06:29:38.391Z,12.55
2019-05-09T06:32:10.503Z,12.42
2019-05-09T06:34:47.775Z,12.40
2019-05-09T06:37:19.624Z,12.52
2019-05-09T06:39:51.586Z,12.41
2019-05-09T06:42:25.508Z,12.19
2019-05-09T06:45:23.441Z,12.12
2019-05-09T06:47:58.306Z,12.11
2019-05-09T06:50:32.667Z,12.09
2019-05-09T06:53:04.094Z,12.05
2019-05-09T06:55:35.649Z,12.07
2019-05-09T06:58:27.716Z,11.96
2019-05-09T07:01:07.779Z,12.02
2019-05-09T07:03:40.044Z,11.87
2019-05-09T07:06:28.384Z,11.87
2019-05-09T07:09:08.347Z,11.87
2019-05-09T07:11:39.422Z,11.79
2019-05-09T07:14:32.309Z,11.92
2019-05-09T07:17:03.427Z,11.80
2019-05-09T07:19:38.264Z,11.88
2019-05-09T07:22:35.037Z,11.79
2019-05-09T07:25:30.861Z,11.88
2019-05-09T07:28:02.307Z,11.85
2019-05-09T07:31:11.424Z,11.74
2019-05-09T07:33:50.524Z,11.76
2019-05-09T07:36:22.788Z,11.64
2019-05-09T07:38:54.553Z,11.71
2019-05-09T07:41:28.346Z,11.80
2019-05-09T07:44:00.302Z,11.58
2019-05-09T07:46:38.344Z,11.64
2019-05-09T07:49:13.646Z,11.67
2019-05-09T07:51:47.707Z,11.50
2019-05-09T07:54:25.205Z,11.64
2019-05-09T07:56:53.552Z,11.55
2019-05-09T07:59:24.831Z,11.58
2019-05-09T08:01:58.085Z,11.49
2019-05-09T08:04:31.594Z,11.51
2019-05-09T08:07:03.119Z,11.61
2019-05-09T08:09:34.783Z,11.53
2019-05-09T08:12:07.484Z,11.66
2019-05-09T08:14:39.247Z,11.68
2019-05-09T08:17:10.738Z,11.66
2019-05-09T08:19:42.903Z,11.57
2019-05-09T08:22:15.175Z,11.49
2019-05-09T08:24:48.360Z,11.53
2019-05-09T08:27:19.904Z,11.57
2019-05-09T08:29:51.344Z,11.52
2019-05-09T08:32:23.097Z,11.71
2019-05-09T08:34:54.559Z,11.56
2019-05-09T08:37:28.327Z,11.53
2019-05-09T08:40:00.360Z,11.49
2019-05-09T08:42:33.498Z,11.43
2019-05-09T08:45:26.951Z,11.51
2019-05-09T08:47:50.250Z,11.61
2019-05-09T08:50:31.633Z,11.78
2019-05-09T08:53:04.966Z,11.93
2019-05-09T08:55:38.363Z,11.92
2019-05-09T08:58:11.899Z,12.12
2019-05-09T09:00:43.852Z,12.21
2019-05-09T09:03:18.524Z,12.33
2019-05-09T09:05:51.060Z,12.16
2019-05-09T09:08:23.504Z,12.18
2019-05-09T09:10:57.663Z,12.09
2019-05-09T09:13:30.707Z,12.43
2019-05-09T09:16:14.955Z,12.24
2019-05-09T09:18:38.825Z,12.36
2019-05-09T09:21:09.687Z,12.51
2019-05-09T09:23:46.751Z,12.71
2019-05-09T09:26:15.090Z,12.55
2019-05-09T09:28:48.437Z,12.68
2019-05-09T09:31:20.066Z,12.54
2019-05-09T09:33:51.834Z,12.51
2019-05-09T09:36:24.182Z,12.66
2019-05-09T09:38:55.871Z,12.46
2019-05-09T09:41:28.726Z,12.10
2019-05-09T09:44:00.714Z,11.98
2019-05-09T09:46:34.451Z,11.79
2019-05-09T09:49:08.086Z,12.00
2019-05-09T09:51:40.649Z,12.08
2019-05-09T09:54:12.578Z,11.89
2019-05-09T09:56:49.091Z,11.88
2019-05-09T09:59:38.609Z,11.78
2019-05-09T10:02:12.508Z,11.95
2019-05-09T10:04:44.237Z,11.93
2019-05-09T10:07:18.960Z,12.25
2019-05-09T10:09:50.934Z,12.60
2019-05-09T10:12:22.469Z,12.84
2019-05-09T10:15:13.114Z,12.74
2019-05-09T10:17:59.939Z,13.39
2019-05-09T10:20:43.093Z,13.21
2019-05-09T10:23:20.723Z,13.14
2019-05-09T10:25:47.893Z,13.06
2019-05-09T10:28:21.932Z,12.89
2019-05-09T10:30:53.940Z,12.77
2019-05-09T10:33:25.256Z,12.86
2019-05-09T10:36:03.178Z,13.50
2019-05-09T10:38:30.499Z,13.36
2019-05-09T10:41:03.846Z,13.41
2019-05-09T10:44:11.265Z,13.55
2019-05-09T10:47:05.172Z,13.61
2019-05-09T10:49:37.948Z,13.92
2019-05-09T10:52:14.365Z,13.85
2019-05-09T10:54:46.544Z,13.63
2019-05-09T10:57:19.043Z,13.60
2019-05-09T10:59:51.277Z,13.51
2019-05-09T11:02:22.961Z,13.59
2019-05-09T11:04:54.391Z,13.44
2019-05-09T11:07:25.827Z,13.92
2019-05-09T11:09:58.852Z,13.80
2019-05-09T11:12:31.559Z,14.01
2019-05-09T11:15:13.446Z,14.35
2019-05-09T11:17:47.333Z,14.74
2019-05-09T11:20:20.485Z,15.09
2019-05-09T11:22:51.660Z,15.04
2019-05-09T11:25:23.966Z,14.68
2019-05-09T11:28:09.982Z,14.66
2019-05-09T11:30:30.738Z,14.73
2019-05-09T11:33:02.444Z,15.00
2019-05-09T11:35:34.287Z,15.22
2019-05-09T11:38:08.345Z,15.05
2019-05-09T11:40:39.995Z,15.23
2019-05-09T11:43:11.821Z,15.24
2019-05-09T11:45:43.878Z,15.14
2019-05-09T11:48:15.813Z,15.37
2019-05-09T11:50:49.121Z,15.37
2019-05-09T11:53:21.637Z,14.96
2019-05-09T11:55:53.111Z,15.51
2019-05-09T11:58:25.046Z,15.43
2019-05-09T12:00:56.674Z,15.17
2019-05-09T12:03:29.971Z,15.54
2019-05-09T12:06:01.653Z,15.58
2019-05-09T12:08:34.896Z,15.24
2019-05-09T12:11:08.342Z,15.66
2019-05-09T12:13:40.182Z,15.57
2019-05-09T12:16:12.152Z,15.85
2019-05-09T12:18:44.750Z,15.70
2019-05-09T12:21:19.216Z,15.86
2019-05-09T12:23:50.088Z,15.73
2019-05-09T12:26:21.761Z,15.90
2019-05-09T12:28:53.428Z,16.24
2019-05-09T12:31:24.905Z,16.12
2019-05-09T12:33:59.194Z,15.72
2019-05-09T12:36:30.913Z,15.31
2019-05-09T12:39:02.785Z,15.17
2019-05-09T12:41:35.118Z,15.19
2019-05-09T12:44:08.906Z,15.56
2019-05-09T12:46:39.799Z,15.60
2019-05-09T12:49:12.131Z,15.59
2019-05-09T12:51:44.279Z,16.17
2019-05-09T12:54:18.792Z,16.50
2019-05-09T12:56:49.779Z,16.25
2019-05-09T12:59:22.756Z,16.00
2019-05-09T13:01:54.696Z,16.03
2019-05-09T13:04:29.209Z,16.26
2019-05-09T13:07:01.768Z,16.40
2019-05-09T13:09:34.877Z,16.42
2019-05-09T13:12:08.632Z,16.67
2019-05-09T13:14:40.497Z,16.25
2019-05-09T13:17:31.323Z,16.47
2019-05-09T13:20:13.750Z,16.24
2019-05-09T13:22:47.571Z,16.58
2019-05-09T13:25:19.129Z,17.25
2019-05-09T13:27:53.204Z,16.49
2019-05-09T13:30:28.447Z,16.33
2019-05-09T13:33:00.337Z,15.88
2019-05-09T13:35:31.765Z,15.77
2019-05-09T13:38:03.593Z,15.84
2019-05-09T13:40:35.599Z,15.89
2019-05-09T13:43:08.948Z,16.09
2019-05-09T13:45:40.080Z,16.41
2019-05-09T13:48:27.094Z,16.54
2019-05-09T13:50:46.043Z,16.30
2019-05-09T13:53:19.248Z,16.00
2019-05-09T13:55:51.277Z,15.98
2019-05-09T13:58:22.883Z,16.44
2019-05-09T14:01:02.160Z,16.28
2019-05-09T14:03:28.197Z,16.47
2019-05-09T14:06:00.416Z,16.83
2019-05-09T14:08:31.806Z,16.67
2019-05-09T14:11:08.353Z,16.85
2019-05-09T14:13:40.120Z,17.00
2019-05-09T14:16:19.916Z,16.72
2019-05-09T14:18:48.583Z,16.42
2019-05-09T14:21:24.319Z,15.63
2019-05-09T14:24:09.901Z,16.67
2019-05-09T14:26:27.752Z,16.90
2019-05-09T14:29:00.229Z,16.70
2019-05-09T14:31:32.686Z,17.30
2019-05-09T14:34:04.062Z,16.45
2019-05-09T14:36:38.354Z,17.74
2019-05-09T14:39:09.717Z,17.83
2019-05-09T14:41:41.024Z,17.09
2019-05-09T14:44:12.600Z,16.67
2019-05-09T14:46:44.272Z,16.61
2019-05-09T14:49:17.613Z,16.60
2019-05-09T14:51:50.022Z,16.43
2019-05-09T14:54:22.479Z,16.50
2019-05-09T14:56:54.198Z,16.59
2019-05-09T14:59:28.402Z,16.60
2019-05-09T15:01:59.381Z,17.48
2019-05-09T15:04:31.275Z,17.49
2019-05-09T15:07:03.074Z,17.27
2019-05-09T15:09:36.458Z,17.10
2019-05-09T15:12:08.246Z,17.05
2019-05-09T15:14:40.441Z,17.17
2019-05-09T15:17:12.252Z,17.43
2019-05-09T15:19:56.360Z,17.43
2019-05-09T15:22:19.683Z,17.64
2019-05-09T15:24:51.753Z,17.58
2019-05-09T15:27:23.693Z,16.35
2019-05-09T15:29:58.283Z,16.86
2019-05-09T15:32:31.468Z,16.89
2019-05-09T15:35:09.264Z,16.99
2019-05-09T15:37:47.871Z,17.57
2019-05-09T15:40:19.830Z,17.91
2019-05-09T15:42:53.331Z,17.49
2019-05-09T15:45:28.544Z,17.10
2019-05-09T15:48:00.366Z,18.04
2019-05-09T15:50:31.975Z,18.51
2019-05-09T15:53:03.533Z,17.49
2019-05-09T15:55:38.156Z,16.99
2019-05-09T15:58:10.453Z,17.84
2019-05-09T16:00:47.774Z,18.15
2019-05-09T16:03:18.824Z,18.82
2019-05-09T16:05:53.036Z,19.48
2019-05-09T16:08:28.575Z,19.45
2019-05-09T16:10:59.670Z,18.68
2019-05-09T16:13:31.364Z,17.49
2019-05-09T16:16:03.107Z,17.04
2019-05-09T16:18:35.513Z,17.62
2019-05-09T16:21:19.298Z,17.42
2019-05-09T16:23:59.727Z,18.04
2019-05-09T16:26:43.245Z,17.54
2019-05-09T16:29:32.986Z,16.86
2019-05-09T16:32:18.748Z,17.61
2019-05-09T16:35:02.099Z,17.17
2019-05-09T16:38:05.114Z,16.91
2019-05-09T16:40:48.002Z,16.72
2019-05-09T16:43:20.370Z,17.25
2019-05-09T16:45:53.387Z,18.23
2019-05-09T16:48:27.633Z,18.07
2019-05-09T16:51:04.328Z,17.64
2019-05-09T16:53:34.488Z,17.48
2019-05-09T16:56:18.257Z,17.44
2019-05-09T16:58:50.462Z,17.49
2019-05-09T17:01:22.736Z,17.79
2019-05-09T17:03:54.437Z,18.14
2019-05-09T17:06:27.519Z,18.32
2019-05-09T17:09:00.688Z,18.35
2019-05-09T17:11:32.740Z,18.22
2019-05-09T17:14:04.517Z,18.37
2019-05-09T17:16:37.681Z,18.91
2019-05-09T17:19:09.313Z,17.64
2019-05-09T17:21:54.703Z,16.54
2019-05-09T17:24:29.645Z,16.57
2019-05-09T17:27:01.762Z,16.67
2019-05-09T17:29:41.747Z,16.56
2019-05-09T17:32:15.208Z,16.15
2019-05-09T17:34:47.611Z,15.99
2019-05-09T17:37:19.574Z,15.88
2019-05-09T17:39:51.641Z,15.93
2019-05-09T17:42:22.907Z,15.91
2019-05-09T17:44:57.779Z,16.36
2019-05-09T17:47:28.498Z,16.59
2019-05-09T17:50:00.181Z,16.32
2019-05-09T17:52:41.610Z,16.21
2019-05-09T17:55:19.285Z,16.24
2019-05-09T17:57:51.809Z,16.35
2019-05-09T18:00:28.068Z,16.15
2019-05-09T18:02:59.832Z,16.36
2019-05-09T18:05:31.687Z,16.30
2019-05-09T18:08:03.740Z,16.20
2019-05-09T18:10:37.986Z,16.20
2019-05-09T18:13:09.904Z,15.99
2019-05-09T18:15:41.789Z,16.01
2019-05-09T18:18:14.737Z,16.20
2019-05-09T18:20:49.385Z,15.90
2019-05-09T18:23:28.341Z,15.76
2019-05-09T18:25:59.582Z,15.70
2019-05-09T18:28:32.441Z,15.14
2019-05-09T18:31:03.895Z,15.24
2019-05-09T18:33:40.920Z,15.32
2019-05-09T18:36:14.550Z,15.11
2019-05-09T18:38:48.068Z,15.18
2019-05-09T18:41:20.967Z,15.47
2019-05-09T18:43:54.273Z,15.58
2019-05-09T18:46:25.516Z,15.49
2019-05-09T18:48:57.966Z,15.55
2019-05-09T18:51:30.297Z,15.51
2019-05-09T18:54:02.516Z,15.60
2019-05-09T18:56:35.263Z,15.52
2019-05-09T18:59:06.930Z,16.04
2019-05-09T19:01:38.692Z,16.55
2019-05-09T19:04:10.402Z,16.02
2019-05-09T19:06:42.167Z,15.10
2019-05-09T19:09:15.651Z,14.72
2019-05-09T19:11:48.024Z,14.31
2019-05-09T19:14:22.006Z,14.22
2019-05-09T19:17:29.126Z,14.17
2019-05-09T19:20:17.853Z,14.11
2019-05-09T19:22:49.358Z,14.22
2019-05-09T19:25:21.449Z,14.06
2019-05-09T19:27:56.031Z,14.05
2019-05-09T19:30:30.808Z,13.33
2019-05-09T19:33:02.982Z,14.09
2019-05-09T19:35:34.811Z,13.90
2019-05-09T19:38:06.952Z,13.86
2019-05-09T19:40:40.022Z,13.73
2019-05-09T19:43:14.143Z,13.83
2019-05-09T19:45:48.056Z,13.92
2019-05-09T19:48:22.889Z,14.03
2019-05-09T19:50:56.230Z,14.28
2019-05-09T19:53:28.485Z,14.66
2019-05-09T19:56:00.139Z,13.92
2019-05-09T19:58:33.545Z,13.17
2019-05-09T20:01:05.215Z,13.36
2019-05-09T20:03:39.047Z,12.84
2019-05-09T20:06:11.106Z,12.69
2019-05-09T20:08:42.982Z,12.76
2019-05-09T20:11:33.137Z,12.99
2019-05-09T20:14:06.375Z,14.20
2019-05-09T20:16:42.447Z,14.77
2019-05-09T20:19:13.790Z,15.16
2019-05-09T20:21:45.448Z,15.30
2019-05-09T20:24:17.779Z,14.71
2019-05-09T20:26:49.629Z,14.76
2019-05-09T20:29:22.694Z,14.77
2019-05-09T20:31:54.385Z,14.01
2019-05-09T20:34:25.674Z,13.06
2019-05-09T20:36:57.184Z,13.64
2019-05-09T20:39:31.057Z,14.25
2019-05-09T20:42:02.610Z,14.49
2019-05-09T20:44:34.214Z,14.52
2019-05-09T20:47:06.130Z,14.09
2019-05-09T20:49:38.100Z,12.88
2019-05-09T20:52:10.703Z,12.73
2019-05-09T20:54:42.697Z,13.18
2019-05-09T20:57:14.326Z,12.74
2019-05-09T20:59:49.029Z,12.39
2019-05-09T21:02:21.105Z,13.38
2019-05-09T21:04:53.566Z,13.61
2019-05-09T21:07:25.895Z,13.21
2019-05-09T21:09:57.778Z,13.33
2019-05-09T21:12:29.711Z,14.23
2019-05-09T21:15:13.534Z,13.16
2019-05-09T21:17:45.607Z,12.64
2019-05-09T21:20:18.389Z,12.74
2019-05-09T21:22:51.569Z,12.62
2019-05-09T21:25:23.877Z,12.58
2019-05-09T21:27:55.794Z,13.64
2019-05-09T21:30:27.557Z,14.41
2019-05-09T21:32:58.955Z,14.49
2019-05-09T21:35:30.162Z,14.34
2019-05-09T21:38:01.805Z,14.66
2019-05-09T21:40:33.228Z,14.98
2019-05-09T21:43:06.150Z,14.59
2019-05-09T21:45:39.452Z,13.27
2019-05-09T21:48:13.356Z,12.94
2019-05-09T21:50:45.807Z,13.07
2019-05-09T21:53:17.602Z,13.06
2019-05-09T21:55:49.124Z,13.76
2019-05-09T21:58:20.839Z,14.04
2019-05-09T22:00:54.968Z,14.73
2019-05-09T22:03:27.315Z,15.05
2019-05-09T22:05:59.238Z,15.28
2019-05-09T22:08:30.626Z,15.00
2019-05-09T22:11:04.204Z,14.91
2019-05-09T22:13:35.904Z,14.54
2019-05-09T22:16:09.001Z,14.75
2019-05-09T22:18:41.428Z,14.48
2019-05-09T22:21:21.696Z,13.79
2019-05-09T22:23:57.274Z,13.39
2019-05-09T22:26:26.418Z,13.20
2019-05-09T22:28:57.866Z,13.38
2019-05-09T22:31:29.115Z,13.62
2019-05-09T22:34:00.749Z,13.76
2019-05-09T22:36:33.679Z,13.84
2019-05-09T22:39:07.095Z,13.98
2019-05-09T22:41:38.554Z,13.88
2019-05-09T22:44:11.290Z,13.88
2019-05-09T22:46:43.537Z,13.94
2019-05-09T22:49:15.029Z,14.05
2019-05-09T22:51:47.756Z,14.15
2019-05-09T22:54:19.530Z,14.32
2019-05-09T22:56:51.320Z,14.47
2019-05-09T22:59:23.109Z,14.27
2019-05-09T23:01:54.981Z,14.39
2019-05-09T23:04:27.025Z,14.39
2019-05-09T23:06:58.962Z,14.34
2019-05-09T23:09:31.366Z,14.40
2019-05-09T23:12:02.711Z,14.25
2019-05-09T23:14:36.223Z,14.30
2019-05-09T23:17:08.644Z,14.31
2019-05-09T23:19:40.753Z,14.33
2019-05-09T23:22:12.306Z,14.34
2019-05-09T23:24:44.808Z,14.34
2019-05-09T23:27:18.276Z,14.32
2019-05-09T23:29:49.801Z,14.33
2019-05-09T23:32:30.442Z,14.39
2019-05-09T23:35:13.992Z,14.28
2019-05-09T23:37:45.848Z,14.21
2019-05-09T23:40:18.489Z,14.22
2019-05-09T23:42:50.608Z,13.38
2019-05-09T23:45:22.210Z,14.05
2019-05-09T23:47:54.626Z,14.03
2019-05-09T23:50:26.733Z,13.95
2019-05-09T23:53:01.022Z,13.94
2019-05-09T23:55:50.737Z,13.98
2019-05-09T23:58:41.075Z,14.01
